Overview Statistics Trail Chart Weather Telemetry Raw packets
 

This is the latest recevied weather packets stored in our database for station/object W8KVG. If no packets are shown the sender has not sent any weather packets the latest 10 day(s).

<< 17 18 19 20 21 22 23 >>
Time Temp. Humidity Pressure Rain* Wind** Luminosity Snow
1777825699 12.22° C 43% 1015.7 hPa 0 mm - 100 W/m² -
1777825398 12.78° C 41% 1015.7 hPa 0 mm - 117 W/m² -
1777825094 12.22° C 40% 1015.8 hPa 0 mm - 109 W/m² -
1777824790 12.78° C 44% 1015.8 hPa 0 mm - 118 W/m² -
1777824487 12.22° C 43% 1016.2 hPa 0 mm - 143 W/m² -
1777824183 11.67° C 40% 1016.2 hPa 0 mm - 137 W/m² -
1777823879 11.67° C 42% 1016.3 hPa 0 mm - 97 W/m² -
1777823577 11.67° C 44% 1015.9 hPa 0 mm - 138 W/m² -
1777823274 11.11° C 46% 1016.1 hPa 0 mm - 112 W/m² -
1777822971 10.56° C 42% 1016.4 hPa 0 mm - 93 W/m² -
1777822669 11.11° C 44% 1016.2 hPa 0 mm - 127 W/m² -
1777822367 10.56° C 46% 1016.3 hPa 0 mm - 54 W/m² -
1777822064 11.11° C 42% 1016.1 hPa 0 mm - 51 W/m² -
1777821762 10.56° C 42% 1016.4 hPa 0 mm - 57 W/m² -
1777821459 11.11° C 45% 1016.4 hPa 0 mm - 51 W/m² -
1777821157 10° C 43% 1016.4 hPa 0 mm - 45 W/m² -
1777820853 10° C 42% 1016.4 hPa 0 mm - 44 W/m² -
1777820549 9.44° C 46% 1016.4 hPa 0 mm - 43 W/m² -
1777820246 10° C 44% 1016.4 hPa 0 mm - 42 W/m² -
1777819944 9.44° C 48% 1016.4 hPa 0 mm - 42 W/m² -
1777819641 10° C 48% 1016.2 hPa 0 mm - 41 W/m² -
1777819339 10° C 50% 1016.3 hPa 0 mm - 41 W/m² -
1777819035 10° C 57% 1016.2 hPa 0 mm - 40 W/m² -
1777818733 9.44° C 52% 1016.4 hPa 0 mm - 40 W/m² -
1777818429 8.89° C 51% 1016.3 hPa 0 mm - 39 W/m² -

* Rain latest hour (hover to see other rain measurements)
** Current wind speed in m/s (hover to see current wind gust speed)